createdAt,value
2022-12-01T00:01:44.361Z,57.97
2022-12-01T00:04:10.686Z,63.33
2022-12-01T00:06:37.023Z,58.15
2022-12-01T00:09:21.690Z,63.58
2022-12-01T00:11:48.217Z,60.22
2022-12-01T00:14:16.248Z,54.40
2022-12-01T00:16:44.402Z,56.53
2022-12-01T00:19:10.857Z,54.17
2022-12-01T00:21:37.163Z,61.20
2022-12-01T00:24:03.490Z,57.85
2022-12-01T00:26:29.794Z,61.35
2022-12-01T00:28:57.217Z,57.63
2022-12-01T00:31:23.947Z,62.78
2022-12-01T00:33:50.561Z,63.83
2022-12-01T00:36:17.008Z,53.95
2022-12-01T00:38:43.253Z,55.42
2022-12-01T00:41:09.584Z,51.78
2022-12-01T00:43:35.999Z,58.20
2022-12-01T00:46:02.311Z,61.28
2022-12-01T00:48:28.617Z,58.17
2022-12-01T00:50:55.302Z,56.08
2022-12-01T00:53:21.873Z,58.35
2022-12-01T00:55:48.144Z,54.28
2022-12-01T00:58:14.471Z,57.28
2022-12-01T01:00:40.714Z,55.10
2022-12-01T01:03:07.569Z,56.13
2022-12-01T01:05:40.585Z,55.30
2022-12-01T01:08:10.905Z,50.33
2022-12-01T01:10:44.407Z,53.13
2022-12-01T01:13:11.517Z,57.80
2022-12-01T01:15:38.289Z,56.88
2022-12-01T01:18:05.276Z,51.10
2022-12-01T01:20:31.818Z,55.63
2022-12-01T01:22:58.116Z,56.08
2022-12-01T01:25:24.827Z,57.22
2022-12-01T01:27:51.286Z,55.58
2022-12-01T01:30:18.283Z,53.05
2022-12-01T01:32:44.566Z,52.92
2022-12-01T01:35:10.843Z,59.95
2022-12-01T01:37:37.067Z,55.63
2022-12-01T01:40:03.624Z,51.60
2022-12-01T01:42:29.965Z,56.50
2022-12-01T01:44:57.618Z,48.53
2022-12-01T01:47:24.381Z,51.92
2022-12-01T01:49:51.072Z,59.47
2022-12-01T01:52:18.072Z,57.97
2022-12-01T01:54:46.277Z,53.80
2022-12-01T01:57:13.621Z,54.25
2022-12-01T01:59:45.646Z,54.58
2022-12-01T02:02:12.624Z,52.72
2022-12-01T02:04:41.547Z,52.53
2022-12-01T02:07:08.828Z,62.22
2022-12-01T02:09:36.241Z,59.78
2022-12-01T02:12:11.242Z,57.75
2022-12-01T02:14:54.968Z,58.03
2022-12-01T02:17:41.827Z,58.35
2022-12-01T02:20:17.284Z,63.92
2022-12-01T02:23:02.371Z,62.08
2022-12-01T02:25:38.663Z,60.10
2022-12-01T02:28:04.960Z,59.88
2022-12-01T02:30:34.098Z,69.50
2022-12-01T02:33:04.776Z,68.05
2022-12-01T02:38:03.259Z,60.38
2022-12-01T02:40:46.761Z,63.53
2022-12-01T02:43:27.303Z,66.05
2022-12-01T02:45:56.523Z,66.50
2022-12-01T02:48:30.951Z,65.82
2022-12-01T02:50:59.508Z,62.05
2022-12-01T02:53:25.920Z,61.17
2022-12-01T02:55:53.154Z,60.80
2022-12-01T02:58:19.565Z,68.30
2022-12-01T03:01:06.164Z,62.40
2022-12-01T03:03:45.496Z,63.20
2022-12-01T03:06:20.267Z,63.60
2022-12-01T03:09:03.070Z,67.72
2022-12-01T03:11:56.891Z,58.45
2022-12-01T03:14:31.705Z,70.07
2022-12-01T03:16:59.672Z,67.70
2022-12-01T03:19:25.941Z,65.82
2022-12-01T03:22:00.165Z,66.53
2022-12-01T03:24:27.645Z,67.75
2022-12-01T03:26:56.926Z,63.22
2022-12-01T03:29:27.856Z,69.63
2022-12-01T03:31:56.789Z,63.58
2022-12-01T03:34:36.462Z,66.35
2022-12-01T03:37:07.186Z,61.75
2022-12-01T03:42:02.212Z,70.65
2022-12-01T03:44:34.546Z,58.50
2022-12-01T03:47:04.257Z,61.28
2022-12-01T03:49:31.001Z,56.08
2022-12-01T03:52:15.777Z,63.70
2022-12-01T03:54:52.078Z,67.70
2022-12-01T03:57:23.727Z,70.78
2022-12-01T03:59:50.231Z,76.25
2022-12-01T04:02:17.229Z,62.15
2022-12-01T04:04:43.509Z,61.17
2022-12-01T04:07:13.410Z,58.78
2022-12-01T04:09:42.522Z,59.97
2022-12-01T04:12:29.934Z,57.00
2022-12-01T04:14:57.390Z,55.42
2022-12-01T04:17:24.210Z,59.45
2022-12-01T04:19:50.755Z,64.18
2022-12-01T04:22:17.236Z,63.63
2022-12-01T04:24:43.709Z,59.85
2022-12-01T04:27:09.954Z,62.33
2022-12-01T04:29:36.252Z,57.88
2022-12-01T04:32:02.528Z,59.40
2022-12-01T04:34:28.815Z,56.80
2022-12-01T04:36:55.230Z,62.35
2022-12-01T04:39:21.554Z,63.03
2022-12-01T04:41:47.790Z,62.03
2022-12-01T04:44:14.289Z,57.22
2022-12-01T04:46:40.658Z,61.20
2022-12-01T04:49:06.945Z,64.25
2022-12-01T04:51:34.295Z,59.42
2022-12-01T04:54:01.421Z,61.08
2022-12-01T04:56:27.689Z,67.82
2022-12-01T04:58:54.026Z,59.75
2022-12-01T05:01:20.465Z,59.75
2022-12-01T05:03:49.553Z,63.58
2022-12-01T05:06:20.224Z,66.55
2022-12-01T05:11:13.602Z,64.15
2022-12-01T05:13:40.985Z,58.78
2022-12-01T05:16:08.969Z,64.90
2022-12-01T05:18:35.350Z,56.72
2022-12-01T05:21:03.858Z,63.67
2022-12-01T05:23:31.654Z,62.33
2022-12-01T05:25:57.917Z,60.22
2022-12-01T05:28:25.323Z,63.90
2022-12-01T05:30:51.629Z,59.25
2022-12-01T05:33:17.902Z,64.38
2022-12-01T05:35:44.269Z,55.72
2022-12-01T05:38:10.595Z,65.60
2022-12-01T05:40:37.005Z,64.32
2022-12-01T05:43:03.484Z,67.60
2022-12-01T05:45:30.089Z,69.97
2022-12-01T05:47:56.902Z,61.92
2022-12-01T05:50:23.533Z,59.47
2022-12-01T05:52:49.814Z,65.40
2022-12-01T05:55:16.156Z,65.18
2022-12-01T05:57:42.446Z,67.53
2022-12-01T06:00:09.127Z,62.60
2022-12-01T06:02:35.399Z,60.13
2022-12-01T06:05:01.759Z,67.35
2022-12-01T06:07:28.153Z,74.32
2022-12-01T06:09:54.520Z,68.78
2022-12-01T06:12:20.968Z,59.75
2022-12-01T06:14:47.194Z,69.18
2022-12-01T06:17:13.423Z,65.60
2022-12-01T06:19:39.717Z,65.80
2022-12-01T06:22:05.958Z,65.53
2022-12-01T06:24:32.277Z,67.38
2022-12-01T06:26:58.624Z,67.65
2022-12-01T06:29:24.873Z,75.32
2022-12-01T06:31:51.139Z,63.88
2022-12-01T06:34:17.462Z,58.50
2022-12-01T06:36:43.722Z,57.58
2022-12-01T06:39:10.358Z,73.43
2022-12-01T06:41:37.291Z,69.82
2022-12-01T06:44:04.136Z,67.03
2022-12-01T06:46:30.679Z,64.40
2022-12-01T06:48:57.148Z,67.00
2022-12-01T06:51:23.417Z,66.35
2022-12-01T06:53:53.637Z,57.95
2022-12-01T06:56:19.897Z,56.60
2022-12-01T06:58:46.691Z,63.60
2022-12-01T07:01:13.396Z,64.13
2022-12-01T07:03:40.088Z,66.38
2022-12-01T07:06:06.382Z,66.85
2022-12-01T07:08:32.919Z,69.88
2022-12-01T07:11:03.812Z,62.90
2022-12-01T07:13:33.769Z,52.00
2022-12-01T07:16:01.223Z,55.53
2022-12-01T07:18:27.443Z,61.40
2022-12-01T07:20:53.686Z,54.13
2022-12-01T07:23:21.322Z,59.45
2022-12-01T07:25:47.530Z,54.53
2022-12-01T07:28:13.801Z,61.15
2022-12-01T07:30:40.145Z,57.38
2022-12-01T07:33:06.405Z,50.70
2022-12-01T07:35:32.678Z,60.03
2022-12-01T07:37:58.949Z,55.53
2022-12-01T07:40:25.305Z,52.05
2022-12-01T07:42:51.571Z,68.28
2022-12-01T07:45:17.797Z,63.72
2022-12-01T07:47:44.510Z,66.72
2022-12-01T07:50:11.072Z,59.20
2022-12-01T07:52:37.305Z,63.60
2022-12-01T07:55:03.591Z,61.50
2022-12-01T07:57:29.885Z,66.03
2022-12-01T07:59:56.109Z,67.20
2022-12-01T08:02:22.458Z,80.18
2022-12-01T08:04:48.891Z,66.10
2022-12-01T08:07:15.109Z,74.57
2022-12-01T08:09:41.366Z,76.90
2022-12-01T08:12:07.757Z,73.72
2022-12-01T08:14:33.980Z,86.75
2022-12-01T08:17:00.423Z,81.05
2022-12-01T08:19:27.653Z,76.57
2022-12-01T08:21:53.872Z,79.57
2022-12-01T08:24:20.138Z,81.07
2022-12-01T08:26:46.435Z,90.43
2022-12-01T08:29:17.020Z,83.70
2022-12-01T08:31:46.078Z,83.25
2022-12-01T08:34:12.291Z,94.80
2022-12-01T08:36:38.518Z,80.07
2022-12-01T08:39:04.730Z,97.15
2022-12-01T08:41:31.751Z,87.70
2022-12-01T08:44:08.842Z,84.32
2022-12-01T08:46:35.485Z,92.95
2022-12-01T08:49:02.589Z,93.68
2022-12-01T08:51:28.938Z,79.75
2022-12-01T08:53:56.339Z,94.20
2022-12-01T08:56:27.062Z,95.85
2022-12-01T09:01:20.040Z,91.43
2022-12-01T09:03:46.726Z,89.00
2022-12-01T09:06:17.819Z,89.15
2022-12-01T09:08:44.266Z,88.30
2022-12-01T09:11:12.052Z,92.65
2022-12-01T09:13:39.524Z,95.47
2022-12-01T09:16:07.498Z,96.63
2022-12-01T09:18:34.319Z,91.20
2022-12-01T09:21:00.593Z,90.25
2022-12-01T09:23:27.060Z,90.80
2022-12-01T09:25:53.622Z,86.03
2022-12-01T09:28:19.931Z,90.93
2022-12-01T09:30:46.773Z,85.72
2022-12-01T09:33:13.403Z,88.22
2022-12-01T09:35:39.732Z,90.90
2022-12-01T09:38:06.025Z,82.45
2022-12-01T09:40:35.434Z,87.40
2022-12-01T09:43:03.438Z,84.40
2022-12-01T09:45:31.667Z,80.50
2022-12-01T09:47:59.993Z,77.35
2022-12-01T09:50:27.416Z,81.68
2022-12-01T09:53:02.521Z,74.43
2022-12-01T09:55:30.221Z,75.45
2022-12-01T09:57:57.865Z,75.88
2022-12-01T10:00:26.144Z,77.80
2022-12-01T10:02:54.755Z,71.85
2022-12-01T10:05:22.340Z,75.65
2022-12-01T10:07:52.716Z,72.60
2022-12-01T10:10:30.199Z,73.85
2022-12-01T10:12:56.810Z,70.88
2022-12-01T10:15:45.645Z,68.57
2022-12-01T10:18:14.778Z,70.95
2022-12-01T10:20:45.383Z,68.05
2022-12-01T10:25:43.522Z,71.05
2022-12-01T10:28:21.050Z,70.45
2022-12-01T10:30:51.439Z,71.10
2022-12-01T10:33:25.409Z,73.13
2022-12-01T10:35:52.370Z,76.18
2022-12-01T10:38:32.579Z,72.00
2022-12-01T10:41:00.875Z,77.20
2022-12-01T10:43:31.571Z,70.05
2022-12-01T10:48:24.118Z,82.28
2022-12-01T10:50:51.809Z,77.18
2022-12-01T10:53:29.504Z,72.80
2022-12-01T10:55:58.621Z,74.30
2022-12-01T10:58:25.816Z,73.28
2022-12-01T11:01:01.168Z,77.32
2022-12-01T11:03:30.005Z,73.95
2022-12-01T11:05:58.228Z,73.35
2022-12-01T11:08:30.070Z,73.30
2022-12-01T11:10:56.557Z,72.57
2022-12-01T11:13:24.489Z,67.32
2022-12-01T11:15:55.078Z,64.30
2022-12-01T11:20:48.416Z,63.03
2022-12-01T11:23:17.427Z,59.33
2022-12-01T11:26:02.422Z,54.38
2022-12-01T11:28:29.360Z,57.10
2022-12-01T11:30:57.313Z,56.20
2022-12-01T11:33:23.597Z,56.58
2022-12-01T11:35:49.943Z,52.60
2022-12-01T11:38:30.746Z,58.33
2022-12-01T11:40:58.065Z,55.10
2022-12-01T11:43:31.877Z,55.25
2022-12-01T11:45:59.672Z,50.33
2022-12-01T11:48:28.100Z,50.40
2022-12-01T11:51:08.204Z,55.15
2022-12-01T11:53:39.359Z,47.60
2022-12-01T11:56:14.999Z,45.72
2022-12-01T11:58:42.154Z,48.75
2022-12-01T12:01:18.962Z,44.20
2022-12-01T12:04:06.726Z,47.90
2022-12-01T12:06:44.592Z,47.53
2022-12-01T12:09:10.953Z,45.90
2022-12-01T12:11:41.927Z,43.28
2022-12-01T12:14:26.775Z,44.38
2022-12-01T12:17:12.606Z,43.78
2022-12-01T12:20:06.656Z,45.58
2022-12-01T12:22:30.902Z,39.55
2022-12-01T12:24:57.154Z,44.40
2022-12-01T12:27:38.445Z,41.92
2022-12-01T12:30:20.017Z,42.38
2022-12-01T12:32:46.283Z,47.22
2022-12-01T12:35:18.491Z,43.70
2022-12-01T12:37:52.630Z,44.17
2022-12-01T12:40:24.748Z,42.15
2022-12-01T12:43:10.740Z,41.72
2022-12-01T12:45:36.973Z,41.92
2022-12-01T12:48:08.885Z,44.95
2022-12-01T12:50:52.985Z,46.95
2022-12-01T12:53:24.602Z,43.70
2022-12-01T12:55:52.787Z,45.10
2022-12-01T12:58:34.132Z,45.00
2022-12-01T13:01:03.480Z,48.33
2022-12-01T13:03:33.973Z,47.22
2022-12-01T13:06:03.313Z,50.72
2022-12-01T13:08:34.298Z,46.95
2022-12-01T13:11:24.533Z,52.25
2022-12-01T13:13:53.782Z,50.92
2022-12-01T13:16:30.660Z,50.67
2022-12-01T13:19:04.910Z,51.28
2022-12-01T13:21:36.804Z,49.53
2022-12-01T13:24:04.031Z,48.00
2022-12-01T13:26:30.814Z,59.78
2022-12-01T13:28:57.784Z,46.95
2022-12-01T13:31:24.224Z,44.58
2022-12-01T13:34:03.692Z,45.42
2022-12-01T13:36:45.884Z,52.28
2022-12-01T13:39:21.066Z,51.65
2022-12-01T13:41:56.351Z,49.10
2022-12-01T13:44:24.821Z,49.22
2022-12-01T13:46:51.146Z,49.75
2022-12-01T13:49:36.769Z,48.15
2022-12-01T13:52:21.350Z,46.70
2022-12-01T13:55:02.581Z,48.33
2022-12-01T13:57:30.555Z,50.00
2022-12-01T13:59:59.579Z,48.33
2022-12-01T14:02:30.315Z,53.47
2022-12-01T14:05:15.455Z,45.55
2022-12-01T14:07:41.909Z,50.50
2022-12-01T14:10:23.974Z,43.85
2022-12-01T14:12:51.303Z,44.03
2022-12-01T14:15:29.654Z,52.40
2022-12-01T14:18:04.266Z,50.13
2022-12-01T14:20:32.394Z,47.83
2022-12-01T14:23:03.536Z,45.00
2022-12-01T14:25:30.737Z,43.85
2022-12-01T14:27:58.626Z,45.20
2022-12-01T14:30:40.132Z,49.50
2022-12-01T14:33:24.932Z,56.00
2022-12-01T14:35:52.181Z,48.63
2022-12-01T14:38:18.485Z,50.45
2022-12-01T14:40:44.748Z,50.10
2022-12-01T14:43:30.903Z,51.90
2022-12-01T14:46:05.935Z,48.92
2022-12-01T14:48:35.756Z,48.10
2022-12-01T14:51:11.924Z,47.63
2022-12-01T14:53:40.712Z,50.42
2022-12-01T14:56:12.553Z,49.80
2022-12-01T14:58:38.908Z,53.35
2022-12-01T15:01:07.144Z,50.45
2022-12-01T15:03:36.187Z,54.83
2022-12-01T15:06:02.532Z,49.65
2022-12-01T15:09:04.109Z,46.05
2022-12-01T15:11:22.947Z,48.13
2022-12-01T15:13:53.409Z,47.67
2022-12-01T15:16:24.079Z,43.65
2022-12-01T15:18:50.372Z,50.28
2022-12-01T15:21:20.535Z,45.20
2022-12-01T15:23:52.633Z,52.08
2022-12-01T15:26:19.499Z,51.45
2022-12-01T15:28:45.758Z,46.65
2022-12-01T15:31:13.338Z,44.13
2022-12-01T15:33:44.431Z,48.65
2022-12-01T15:36:10.921Z,48.22
2022-12-01T15:38:37.698Z,52.30
2022-12-01T15:41:28.366Z,48.45
2022-12-01T15:43:56.197Z,42.92
2022-12-01T15:46:29.997Z,44.85
2022-12-01T15:49:29.422Z,45.67
2022-12-01T15:52:04.726Z,50.53
2022-12-01T15:54:31.438Z,48.55
2022-12-01T15:57:01.520Z,53.28
2022-12-01T15:59:27.799Z,47.72
2022-12-01T16:01:54.519Z,44.72
2022-12-01T16:04:22.830Z,47.85
2022-12-01T16:07:08.344Z,47.60
2022-12-01T16:09:38.667Z,47.22
2022-12-01T16:12:17.520Z,46.85
2022-12-01T16:14:50.115Z,46.35
2022-12-01T16:17:17.137Z,43.83
2022-12-01T16:19:45.386Z,44.17
2022-12-01T16:22:11.658Z,46.00
2022-12-01T16:24:43.639Z,45.00
2022-12-01T16:27:18.396Z,48.83
2022-12-01T16:29:50.516Z,50.53
2022-12-01T16:32:20.677Z,43.75
2022-12-01T16:37:14.815Z,44.65
2022-12-01T16:39:41.092Z,49.38
2022-12-01T16:42:10.598Z,44.95
2022-12-01T16:44:36.919Z,46.08
2022-12-01T16:47:03.158Z,42.35
2022-12-01T16:49:29.442Z,45.35
2022-12-01T16:51:57.055Z,46.42
2022-12-01T16:54:24.290Z,43.83
2022-12-01T16:56:51.266Z,44.83
2022-12-01T16:59:18.062Z,42.53
2022-12-01T17:01:44.396Z,42.10
2022-12-01T17:04:10.715Z,38.85
2022-12-01T17:06:38.307Z,46.28
2022-12-01T17:09:04.719Z,47.45
2022-12-01T17:11:30.956Z,48.58
2022-12-01T17:13:57.260Z,39.33
2022-12-01T17:16:23.627Z,38.25
2022-12-01T17:18:49.915Z,39.28
2022-12-01T17:21:16.149Z,41.22
2022-12-01T17:23:42.392Z,42.30
2022-12-01T17:26:10.359Z,40.90
2022-12-01T17:28:36.714Z,43.95
2022-12-01T17:31:03.568Z,36.85
2022-12-01T17:33:29.994Z,46.00
2022-12-01T17:35:59.636Z,43.50
2022-12-01T17:38:25.882Z,39.50
2022-12-01T17:41:11.500Z,43.20
2022-12-01T17:43:38.476Z,47.28
2022-12-01T17:46:05.752Z,39.53
2022-12-01T17:48:36.261Z,36.65
2022-12-01T17:51:02.507Z,41.55
2022-12-01T17:53:28.791Z,42.30
2022-12-01T17:55:54.996Z,44.20
2022-12-01T17:58:21.639Z,41.30
2022-12-01T18:00:49.712Z,55.03
2022-12-01T18:03:15.990Z,40.45
2022-12-01T18:05:42.349Z,43.50
2022-12-01T18:08:08.639Z,41.97
2022-12-01T18:10:35.228Z,44.75
2022-12-01T18:13:01.762Z,42.03
2022-12-01T18:15:31.763Z,42.67
2022-12-01T18:18:00.977Z,42.95
2022-12-01T18:20:27.248Z,52.78
2022-12-01T18:22:53.492Z,47.88
2022-12-01T18:25:19.842Z,43.38
2022-12-01T18:27:46.140Z,43.50
2022-12-01T18:30:12.703Z,50.10
2022-12-01T18:32:39.053Z,46.80
2022-12-01T18:35:05.588Z,47.03
2022-12-01T18:37:31.903Z,43.13
2022-12-01T18:39:58.147Z,37.15
2022-12-01T18:42:24.580Z,39.58
2022-12-01T18:44:51.215Z,35.85
2022-12-01T18:47:17.726Z,42.85
2022-12-01T18:49:44.037Z,42.10
2022-12-01T18:52:10.451Z,43.83
2022-12-01T18:54:36.823Z,46.83
2022-12-01T18:57:03.102Z,47.05
2022-12-01T18:59:29.463Z,44.75
2022-12-01T19:01:55.831Z,48.58
2022-12-01T19:04:22.420Z,39.20
2022-12-01T19:06:48.688Z,46.63
2022-12-01T19:09:16.070Z,47.50
2022-12-01T19:11:43.146Z,44.40
2022-12-01T19:14:17.110Z,41.15
2022-12-01T19:16:43.815Z,47.38
2022-12-01T19:19:10.169Z,40.83
2022-12-01T19:21:36.525Z,45.80
2022-12-01T19:24:02.782Z,42.13
2022-12-01T19:26:29.126Z,44.03
2022-12-01T19:28:55.388Z,44.03
2022-12-01T19:31:23.735Z,51.83
2022-12-01T19:33:50.725Z,44.53
2022-12-01T19:36:18.289Z,51.60
2022-12-01T19:38:45.092Z,40.17
2022-12-01T19:41:11.810Z,41.88
2022-12-01T19:43:38.141Z,52.95
2022-12-01T19:46:07.929Z,48.47
2022-12-01T19:48:34.646Z,53.40
2022-12-01T19:51:00.919Z,48.90
2022-12-01T19:53:31.983Z,46.90
2022-12-01T19:56:01.600Z,46.15
2022-12-01T19:58:27.823Z,42.22
2022-12-01T20:00:54.243Z,43.45
2022-12-01T20:03:20.584Z,51.53
2022-12-01T20:05:46.852Z,48.63
2022-12-01T20:08:13.858Z,50.40
2022-12-01T20:10:47.677Z,50.95
2022-12-01T20:13:14.002Z,56.60
2022-12-01T20:15:40.278Z,50.35
2022-12-01T20:18:06.504Z,51.05
2022-12-01T20:20:32.734Z,50.45
2022-12-01T20:22:58.971Z,49.50
2022-12-01T20:25:25.174Z,52.38
2022-12-01T20:27:51.382Z,50.40
2022-12-01T20:30:17.679Z,47.65
2022-12-01T20:32:43.922Z,44.65
2022-12-01T20:35:10.166Z,47.65
2022-12-01T20:37:36.481Z,46.38
2022-12-01T20:40:02.849Z,47.75
2022-12-01T20:42:29.070Z,49.63
2022-12-01T20:44:55.284Z,51.80
2022-12-01T20:47:21.602Z,55.17
2022-12-01T20:49:47.989Z,52.78
2022-12-01T20:52:14.248Z,53.20
2022-12-01T20:54:42.358Z,51.83
2022-12-01T20:57:08.787Z,50.85
2022-12-01T20:59:35.090Z,58.38
2022-12-01T21:02:01.385Z,55.60
2022-12-01T21:04:27.723Z,56.85
2022-12-01T21:06:57.510Z,50.95
2022-12-01T21:09:24.031Z,52.93
2022-12-01T21:12:09.498Z,53.85
2022-12-01T21:14:47.534Z,56.65
2022-12-01T21:17:34.185Z,51.50
2022-12-01T21:20:21.863Z,47.17
2022-12-01T21:22:49.486Z,51.95
2022-12-01T21:25:18.786Z,53.92
2022-12-01T21:27:45.826Z,51.83
2022-12-01T21:30:16.951Z,51.67
2022-12-01T21:32:44.497Z,59.85
2022-12-01T21:35:16.853Z,57.17
2022-12-01T21:37:43.344Z,61.78
2022-12-01T21:40:16.528Z,64.20
2022-12-01T21:42:42.981Z,58.45
2022-12-01T21:45:16.638Z,55.65
2022-12-01T21:47:42.919Z,64.10
2022-12-01T21:50:14.122Z,55.90
2022-12-01T21:52:41.651Z,61.55
2022-12-01T21:55:13.993Z,56.83
2022-12-01T21:57:43.052Z,57.63
2022-12-01T22:00:29.775Z,69.57
2022-12-01T22:03:01.793Z,67.10
2022-12-01T22:06:01.201Z,65.15
2022-12-01T22:08:31.901Z,68.32
2022-12-01T22:11:00.954Z,69.60
2022-12-01T22:13:32.209Z,66.35
2022-12-01T22:15:58.509Z,65.00
2022-12-01T22:18:27.233Z,63.28
2022-12-01T22:20:53.862Z,64.60
2022-12-01T22:23:33.014Z,68.28
2022-12-01T22:25:59.330Z,67.05
2022-12-01T22:28:25.702Z,72.78
2022-12-01T22:30:52.072Z,75.22
2022-12-01T22:33:21.161Z,72.38
2022-12-01T22:35:49.087Z,66.63
2022-12-01T22:38:19.469Z,74.50
2022-12-01T22:40:48.503Z,77.40
2022-12-01T22:43:14.784Z,79.88
2022-12-01T22:45:41.357Z,80.85
2022-12-01T22:48:15.662Z,77.88
2022-12-01T22:50:42.084Z,79.63
2022-12-01T22:53:19.004Z,75.90
2022-12-01T22:55:45.272Z,75.10
2022-12-01T22:58:24.733Z,69.65
2022-12-01T23:00:52.226Z,74.22
2022-12-01T23:03:18.525Z,69.88
2022-12-01T23:05:45.331Z,77.47
2022-12-01T23:08:16.186Z,74.40
2022-12-01T23:10:42.498Z,80.65
2022-12-01T23:13:12.756Z,75.07
2022-12-01T23:15:39.984Z,81.65
2022-12-01T23:18:35.582Z,77.53
2022-12-01T23:21:02.315Z,77.93
2022-12-01T23:23:30.676Z,84.53
2022-12-01T23:25:57.232Z,77.93
2022-12-01T23:28:24.038Z,87.53
2022-12-01T23:30:52.708Z,78.53
2022-12-01T23:33:21.450Z,90.88
2022-12-01T23:35:50.660Z,82.25
2022-12-01T23:38:24.516Z,89.80
2022-12-01T23:40:52.013Z,86.10
2022-12-01T23:43:23.049Z,88.18
2022-12-01T23:45:50.892Z,83.75
2022-12-01T23:48:32.678Z,96.93
2022-12-01T23:50:58.983Z,89.00
2022-12-01T23:53:27.040Z,98.75
2022-12-01T23:55:53.729Z,96.20
2022-12-01T23:58:20.105Z,91.07
